Time;durP1;ratioP1;P1;durP2;ratioP2;P2;SDS_P1;SDS_P2;PMS_P1;PMS_P2;Temp;Humidity;BMP_temperature;BMP_pressure;BME280_temperature;BME280_humidity;BME280_pressure;Samples;Min_cycle;Max_cycle;Signal;HPM_P1;HPM_P2
2023/02/06 00:00:55;;;;;;;9.75;7.63;;;;;;;;;;6121892;23;20014;-88
2023/02/06 00:03:25;;;;;;;13.20;8.85;;;;;;;;;;6121847;23;20018;-88
2023/02/06 00:05:56;;;;;;;12.80;8.95;;;;;;;;;;6095764;23;20014;-88
2023/02/06 00:08:25;;;;;;;10.35;6.90;;;;;;;;;;6132603;23;20021;-88
2023/02/06 00:10:52;;;;;;;12.73;7.63;;;;;;;;;;6124637;23;20014;-88
2023/02/06 00:13:22;;;;;;;9.07;7.05;;;;;;;;;;6134957;23;20014;-88
2023/02/06 00:15:51;;;;;;;13.63;8.30;;;;;;;;;;6099777;23;20014;-88
2023/02/06 00:18:21;;;;;;;13.93;9.15;;;;;;;;;;6075206;23;20025;-88
2023/02/06 00:20:48;;;;;;;11.02;8.05;;;;;;;;;;6124314;23;20025;-88
2023/02/06 00:23:18;;;;;;;11.30;8.77;;;;;;;;;;6134644;23;20013;-88
2023/02/06 00:25:47;;;;;;;11.45;8.65;;;;;;;;;;6098523;23;20026;-88
2023/02/06 00:28:14;;;;;;;11.40;10.15;;;;;;;;;;6134891;23;20013;-88
2023/02/06 00:30:41;;;;;;;10.18;8.95;;;;;;;;;;6074549;23;20014;-88
2023/02/06 00:33:11;;;;;;;11.27;9.07;;;;;;;;;;6074266;23;20029;-88
2023/02/06 00:35:38;;;;;;;9.10;8.15;;;;;;;;;;6074236;23;20103;-88
2023/02/06 00:38:10;;;;;;;9.50;8.00;;;;;;;;;;6074382;23;20021;-87
2023/02/06 02:26:25;;;;;;;;;;;;;;;;;;;;;
2023/02/06 05:56:41;;;;;;;12.43;9.35;;;;;;;;;;6149322;23;20033;-91
2023/02/06 05:59:12;;;;;;;12.50;9.70;;;;;;;;;;6098178;23;20516;-92
2023/02/06 06:01:49;;;;;;;11.27;9.57;;;;;;;;;;6099914;23;20017;-91
2023/02/06 06:10:12;;;;;;;11.57;10.35;;;;;;;;;;6100006;23;20036;-91
2023/02/06 06:30:36;;;;;;;11.20;8.52;;;;;;;;;;6099789;23;20014;-93
2023/02/06 06:33:15;;;;;;;13.05;9.70;;;;;;;;;;6096692;23;20563;-92
2023/02/06 06:35:48;;;;;;;15.93;9.23;;;;;;;;;;6121363;23;20021;-95
2023/02/06 06:38:18;;;;;;;13.35;9.40;;;;;;;;;;6098969;23;20021;-92
2023/02/06 06:40:48;;;;;;;14.33;10.63;;;;;;;;;;6099965;23;20022;-83
2023/02/06 06:43:19;;;;;;;10.73;8.65;;;;;;;;;;6123711;23;20017;-84
2023/02/06 06:45:48;;;;;;;13.10;9.13;;;;;;;;;;6124388;23;20037;-84
2023/02/06 06:48:16;;;;;;;12.00;10.05;;;;;;;;;;6113389;23;20029;-84
2023/02/06 06:50:43;;;;;;;13.15;10.43;;;;;;;;;;6096122;23;20393;-84
2023/02/06 06:53:10;;;;;;;15.18;12.20;;;;;;;;;;6083605;23;20018;-84
2023/02/06 06:55:42;;;;;;;13.93;11.10;;;;;;;;;;6084901;23;20025;-84
2023/02/06 06:58:10;;;;;;;9.80;8.80;;;;;;;;;;6086013;23;20485;-83
2023/02/06 07:00:41;;;;;;;10.88;8.07;;;;;;;;;;6092361;23;20344;-84
2023/02/06 07:03:11;;;;;;;9.93;8.77;;;;;;;;;;6095330;23;20029;-84
2023/02/06 07:05:38;;;;;;;8.80;7.93;;;;;;;;;;6085773;23;20022;-84
2023/02/06 07:08:06;;;;;;;11.00;7.50;;;;;;;;;;6082169;23;20029;-84
2023/02/06 07:10:33;;;;;;;8.18;6.03;;;;;;;;;;6092841;23;20014;-83
2023/02/06 07:13:00;;;;;;;10.35;6.93;;;;;;;;;;6087992;23;20022;-84
2023/02/06 07:15:27;;;;;;;11.02;8.05;;;;;;;;;;6091745;23;20014;-84
2023/02/06 07:17:56;;;;;;;11.02;7.55;;;;;;;;;;6092384;23;20018;-83
2023/02/06 07:20:23;;;;;;;7.07;6.38;;;;;;;;;;6115542;23;20018;-83
2023/02/06 07:22:53;;;;;;;8.43;5.72;;;;;;;;;;6093180;23;20358;-83
2023/02/06 07:25:25;;;;;;;8.35;5.10;;;;;;;;;;6112439;23;20014;-83
2023/02/06 07:27:55;;;;;;;9.90;6.43;;;;;;;;;;6089895;23;20026;-83
2023/02/06 07:30:22;;;;;;;11.52;7.93;;;;;;;;;;6089849;23;20025;-83
2023/02/06 07:32:52;;;;;;;8.35;6.32;;;;;;;;;;6094914;23;20021;-83
2023/02/06 07:35:20;;;;;;;8.10;5.50;;;;;;;;;;6092578;23;20033;-83
2023/02/06 07:37:48;;;;;;;11.50;5.50;;;;;;;;;;6092329;23;20025;-83
2023/02/06 07:40:15;;;;;;;7.55;5.30;;;;;;;;;;6091999;23;20014;-82
2023/02/06 07:42:42;;;;;;;8.15;5.97;;;;;;;;;;6103160;23;20025;-82
2023/02/06 07:45:21;;;;;;;8.45;6.28;;;;;;;;;;6126138;23;20354;-83
2023/02/06 07:47:50;;;;;;;10.07;5.97;;;;;;;;;;6093428;23;20014;-83
2023/02/06 07:50:18;;;;;;;13.60;5.72;;;;;;;;;;6093226;23;20017;-83
2023/02/06 07:52:49;;;;;;;7.85;6.13;;;;;;;;;;6094840;23;20342;-83
2023/02/06 07:55:16;;;;;;;10.02;6.47;;;;;;;;;;6094295;23;20022;-83
2023/02/06 07:57:43;;;;;;;7.22;5.88;;;;;;;;;;6095335;23;20022;-83
2023/02/06 08:00:14;;;;;;;8.88;6.80;;;;;;;;;;6113853;23;20018;-83
2023/02/06 08:02:44;;;;;;;10.30;7.15;;;;;;;;;;6093930;23;20018;-83
2023/02/06 08:05:13;;;;;;;6.80;5.68;;;;;;;;;;6115729;23;20019;-83
2023/02/06 08:07:40;;;;;;;10.57;6.65;;;;;;;;;;6110966;23;20029;-83
2023/02/06 08:10:10;;;;;;;9.90;7.25;;;;;;;;;;6116128;23;20379;-83
2023/02/06 08:12:37;;;;;;;7.82;6.47;;;;;;;;;;6093165;23;20029;-83
2023/02/06 08:15:05;;;;;;;9.93;8.00;;;;;;;;;;6091325;23;20023;-83
2023/02/06 08:17:32;;;;;;;12.68;9.90;;;;;;;;;;6092673;23;20350;-82
2023/02/06 08:19:59;;;;;;;9.27;7.22;;;;;;;;;;6093402;23;20023;-83
2023/02/06 08:22:28;;;;;;;9.02;6.38;;;;;;;;;;6094211;23;20022;-83
2023/02/06 08:24:55;;;;;;;8.98;7.43;;;;;;;;;;6102768;23;20029;-83
2023/02/06 08:27:24;;;;;;;8.02;5.15;;;;;;;;;;6069091;23;20015;-83
2023/02/06 08:29:51;;;;;;;8.35;6.65;;;;;;;;;;6093020;23;20358;-83
2023/02/06 08:32:21;;;;;;;6.38;5.07;;;;;;;;;;6095833;23;20014;-82
2023/02/06 08:34:51;;;;;;;11.90;6.63;;;;;;;;;;6092439;23;20037;-82
2023/02/06 08:37:20;;;;;;;6.55;5.82;;;;;;;;;;6093895;23;20650;-83
2023/02/06 08:39:48;;;;;;;8.02;6.10;;;;;;;;;;6126284;23;20022;-83
2023/02/06 08:42:15;;;;;;;7.05;5.45;;;;;;;;;;6105666;23;20037;-83
2023/02/06 08:44:46;;;;;;;7.22;5.78;;;;;;;;;;6103499;23;20023;-83
2023/02/06 08:47:13;;;;;;;7.95;5.20;;;;;;;;;;6094291;23;20015;-84
2023/02/06 08:49:40;;;;;;;7.72;5.15;;;;;;;;;;6095255;23;20022;-83
2023/02/06 08:52:08;;;;;;;6.97;4.60;;;;;;;;;;6126266;23;20477;-83
2023/02/06 08:54:37;;;;;;;11.25;7.00;;;;;;;;;;6094957;23;20022;-83
2023/02/06 08:57:05;;;;;;;7.13;5.38;;;;;;;;;;6094394;23;20021;-83
2023/02/06 08:59:33;;;;;;;10.05;6.00;;;;;;;;;;6104128;23;20014;-83
2023/02/06 09:02:05;;;;;;;8.52;5.22;;;;;;;;;;6093406;23;20370;-83
2023/02/06 09:04:36;;;;;;;7.35;5.38;;;;;;;;;;6095197;23;20023;-83
2023/02/06 09:07:04;;;;;;;8.55;6.30;;;;;;;;;;6093937;23;20383;-83
2023/02/06 09:09:33;;;;;;;9.70;6.28;;;;;;;;;;6093716;23;20033;-83
2023/02/06 09:12:04;;;;;;;7.50;5.63;;;;;;;;;;6090670;23;20029;-83
2023/02/06 09:14:31;;;;;;;7.55;6.50;;;;;;;;;;6095638;23;20363;-83
2023/02/06 09:17:01;;;;;;;9.45;6.30;;;;;;;;;;6094011;23;20019;-83
2023/02/06 09:19:29;;;;;;;8.43;6.20;;;;;;;;;;6128254;23;20029;-83
2023/02/06 09:21:57;;;;;;;6.57;5.63;;;;;;;;;;6117878;23;20014;-83
2023/02/06 09:24:26;;;;;;;6.55;5.88;;;;;;;;;;6093789;23;20027;-83
2023/02/06 09:26:55;;;;;;;7.95;6.03;;;;;;;;;;6094139;23;20019;-83
2023/02/06 09:29:22;;;;;;;5.57;5.00;;;;;;;;;;6105832;23;20014;-83
2023/02/06 09:31:50;;;;;;;6.50;5.90;;;;;;;;;;6094261;23;20011;-82
2023/02/06 09:34:19;;;;;;;6.18;5.50;;;;;;;;;;6095971;23;20022;-83
2023/02/06 09:36:48;;;;;;;5.95;4.70;;;;;;;;;;6116421;23;20014;-83
2023/02/06 09:39:15;;;;;;;9.10;5.78;;;;;;;;;;6095029;23;20034;-83
2023/02/06 09:41:44;;;;;;;8.52;6.00;;;;;;;;;;6117508;23;20030;-83
2023/02/06 09:44:16;;;;;;;8.52;5.97;;;;;;;;;;6128502;23;20015;-83
2023/02/06 09:46:46;;;;;;;7.85;7.03;;;;;;;;;;6092889;23;20354;-83
2023/02/06 09:49:20;;;;;;;5.57;4.97;;;;;;;;;;6104313;23;20019;-83
2023/02/06 09:52:06;;;;;;;8.43;5.63;;;;;;;;;;6105264;23;20010;-83
2023/02/06 09:54:41;;;;;;;5.60;4.85;;;;;;;;;;6104435;23;20021;-83
2023/02/06 09:57:14;;;;;;;7.18;5.75;;;;;;;;;;6094551;23;20018;-83
2023/02/06 09:59:49;;;;;;;5.20;4.28;;;;;;;;;;6104081;23;20037;-83
2023/02/06 10:02:29;;;;;;;16.23;6.22;;;;;;;;;;6095486;23;20018;-82
2023/02/06 10:04:58;;;;;;;6.85;4.72;;;;;;;;;;6093653;23;20018;-83
2023/02/06 10:07:46;;;;;;;5.25;3.30;;;;;;;;;;6094428;23;20014;-83
2023/02/06 10:10:21;;;;;;;4.38;3.00;;;;;;;;;;6092996;23;20041;-83
2023/02/06 10:12:55;;;;;;;6.85;4.18;;;;;;;;;;6127376;23;20037;-83
2023/02/06 10:15:31;;;;;;;6.10;4.13;;;;;;;;;;6069052;23;20025;-83
2023/02/06 10:18:01;;;;;;;5.15;3.75;;;;;;;;;;6103167;23;20018;-83
2023/02/06 10:20:32;;;;;;;6.60;4.10;;;;;;;;;;6094095;23;20019;-83
2023/02/06 10:23:11;;;;;;;7.60;4.18;;;;;;;;;;6103694;23;20347;-83
2023/02/06 10:25:45;;;;;;;3.58;2.72;;;;;;;;;;6127382;23;20014;-83
2023/02/06 10:28:21;;;;;;;5.38;3.70;;;;;;;;;;6068519;23;20485;-82
2023/02/06 10:31:00;;;;;;;3.83;3.33;;;;;;;;;;6092483;23;20022;-83
2023/02/06 10:33:34;;;;;;;5.80;3.88;;;;;;;;;;6117703;23;20466;-83
2023/02/06 10:36:08;;;;;;;14.02;4.72;;;;;;;;;;6104329;23;20122;-83
2023/02/06 10:38:48;;;;;;;5.50;3.13;;;;;;;;;;6103785;23;20319;-83
2023/02/06 10:41:24;;;;;;;7.05;3.88;;;;;;;;;;6092433;23;20035;-83
2023/02/06 10:43:54;;;;;;;8.95;3.88;;;;;;;;;;6067911;23;20041;-83
2023/02/06 10:46:33;;;;;;;4.75;2.90;;;;;;;;;;6127055;23;20346;-83
2023/02/06 10:49:03;;;;;;;4.05;3.03;;;;;;;;;;6104921;23;20067;-83
2023/02/06 10:51:32;;;;;;;6.18;2.83;;;;;;;;;;6093777;23;20015;-83
2023/02/06 10:54:05;;;;;;;3.55;2.95;;;;;;;;;;6070055;23;20025;-83
2023/02/06 10:56:36;;;;;;;4.72;3.20;;;;;;;;;;6093134;23;20025;-83
2023/02/06 10:59:07;;;;;;;3.88;2.90;;;;;;;;;;6102350;23;20014;-83
2023/02/06 11:01:39;;;;;;;3.88;2.72;;;;;;;;;;6090766;23;20335;-83
2023/02/06 11:04:11;;;;;;;4.75;2.67;;;;;;;;;;6095037;23;20478;-83
2023/02/06 11:06:41;;;;;;;26.10;7.80;;;;;;;;;;6090418;23;20026;-83
2023/02/06 11:09:12;;;;;;;4.30;3.72;;;;;;;;;;6093224;23;20731;-83
2023/02/06 11:11:46;;;;;;;6.70;4.15;;;;;;;;;;6090138;23;20014;-83
2023/02/06 11:14:16;;;;;;;31.70;9.90;;;;;;;;;;6125769;23;20025;-83
2023/02/06 11:16:44;;;;;;;12.27;4.05;;;;;;;;;;6091999;23;20022;-83
2023/02/06 11:19:16;;;;;;;43.63;10.40;;;;;;;;;;6083984;23;20470;-83
2023/02/06 11:21:55;;;;;;;24.75;7.63;;;;;;;;;;6084295;23;20025;-83
2023/02/06 11:24:29;;;;;;;5.35;2.70;;;;;;;;;;6083483;23;20030;-83
2023/02/06 11:26:57;;;;;;;4.32;3.30;;;;;;;;;;6086208;23;20025;-83
2023/02/06 11:29:28;;;;;;;4.47;4.07;;;;;;;;;;6094598;23;20027;-83
2023/02/06 11:31:57;;;;;;;5.40;3.63;;;;;;;;;;6083310;23;20019;-83
2023/02/06 11:34:29;;;;;;;4.25;2.45;;;;;;;;;;6083543;23;20034;-83
2023/02/06 11:37:00;;;;;;;4.28;3.13;;;;;;;;;;6095776;23;20426;-83
2023/02/06 11:39:33;;;;;;;4.45;3.13;;;;;;;;;;6095333;23;20025;-84
2023/02/06 11:42:05;;;;;;;4.32;3.90;;;;;;;;;;6086080;23;20346;-83
2023/02/06 11:44:38;;;;;;;5.03;3.83;;;;;;;;;;6085805;23;20481;-83
2023/02/06 11:47:29;;;;;;;7.93;5.65;;;;;;;;;;6096533;23;20475;-83
2023/02/06 11:50:25;;;;;;;5.78;5.18;;;;;;;;;;6107551;23;20643;-84
2023/02/06 11:53:00;;;;;;;5.57;3.83;;;;;;;;;;6083917;23;20820;-83
2023/02/06 11:55:33;;;;;;;6.15;5.00;;;;;;;;;;6136772;23;20022;-83
2023/02/06 11:58:04;;;;;;;8.18;3.97;;;;;;;;;;6095130;23;20018;-83
2023/02/06 12:00:36;;;;;;;4.53;3.47;;;;;;;;;;6093407;23;20337;-83
2023/02/06 12:03:22;;;;;;;4.00;3.70;;;;;;;;;;6126467;23;20544;-83
2023/02/06 12:05:50;;;;;;;6.97;3.17;;;;;;;;;;6093037;23;20262;-83
2023/02/06 12:08:20;;;;;;;3.78;2.90;;;;;;;;;;6093643;23;20018;-83
2023/02/06 12:10:56;;;;;;;6.57;2.88;;;;;;;;;;6092050;23;20022;-83
2023/02/06 12:13:23;;;;;;;;;;;;;;;;;;6094776;23;20021;-83
2023/02/06 12:15:52;;;;;;;4.32;3.45;;;;;;;;;;6095753;23;19921;-83
2023/02/06 12:18:24;;;;;;;6.82;4.10;;;;;;;;;;6105100;23;20446;-83
2023/02/06 12:20:57;;;;;;;21.02;11.70;;;;;;;;;;6092038;23;20030;-83
2023/02/06 12:23:33;;;;;;;14.13;9.85;;;;;;;;;;6095532;23;20025;-83
2023/02/06 12:26:05;;;;;;;6.65;5.63;;;;;;;;;;6130217;23;20022;-83
2023/02/06 12:28:39;;;;;;;5.05;4.45;;;;;;;;;;6107322;23;20018;-84
2023/02/06 12:31:11;;;;;;;3.22;2.45;;;;;;;;;;6099645;23;20019;-83
2023/02/06 12:33:44;;;;;;;3.33;2.70;;;;;;;;;;6107859;23;20034;-84
2023/02/06 12:36:17;;;;;;;2.00;1.50;;;;;;;;;;6138241;23;20025;-84
2023/02/06 12:38:48;;;;;;;6.00;2.83;;;;;;;;;;6109743;23;20413;-83
2023/02/06 12:41:39;;;;;;;3.92;2.38;;;;;;;;;;6148807;23;20021;-85
2023/02/06 12:44:18;;;;;;;4.13;1.95;;;;;;;;;;6133934;23;20021;-85
2023/02/06 12:46:49;;;;;;;2.53;2.15;;;;;;;;;;6123312;23;20022;-86
2023/02/06 12:49:20;;;;;;;3.88;2.75;;;;;;;;;;6135556;23;20021;-86
2023/02/06 12:51:53;;;;;;;2.65;2.45;;;;;;;;;;6122104;23;20492;-86
2023/02/06 12:54:24;;;;;;;5.68;2.60;;;;;;;;;;6098465;23;20346;-86
2023/02/06 12:56:56;;;;;;;4.95;2.08;;;;;;;;;;6132823;23;20021;-86
2023/02/06 12:59:41;;;;;;;3.47;2.50;;;;;;;;;;6135517;23;20014;-86
2023/02/06 13:02:19;;;;;;;2.58;2.30;;;;;;;;;;6122622;23;20025;-85
2023/02/06 13:04:47;;;;;;;2.45;2.17;;;;;;;;;;6099005;23;20014;-86
2023/02/06 13:07:16;;;;;;;3.20;2.08;;;;;;;;;;6134105;23;20018;-86
2023/02/06 13:09:48;;;;;;;3.55;2.58;;;;;;;;;;6122539;23;20454;-86
2023/02/06 13:12:22;;;;;;;3.28;2.35;;;;;;;;;;6134782;23;20529;-86
2023/02/06 13:14:51;;;;;;;2.05;1.50;;;;;;;;;;6122515;23;20461;-86
2023/02/06 13:17:20;;;;;;;2.42;2.10;;;;;;;;;;6125558;23;20014;-86
2023/02/06 13:20:02;;;;;;;4.68;2.72;;;;;;;;;;6098673;23;20018;-86
2023/02/06 13:22:45;;;;;;;3.90;2.50;;;;;;;;;;6123744;23;20025;-87
2023/02/06 13:25:53;;;;;;;2.70;2.35;;;;;;;;;;6121375;23;20357;-86
2023/02/06 13:28:41;;;;;;;2.10;1.50;;;;;;;;;;6135314;23;20021;-86
2023/02/06 13:31:24;;;;;;;3.38;2.05;;;;;;;;;;6127780;23;20021;-86
2023/02/06 13:33:54;;;;;;;2.97;2.15;;;;;;;;;;6132722;23;20010;-85
2023/02/06 13:36:26;;;;;;;2.35;1.92;;;;;;;;;;6120332;23;20648;-86
2023/02/06 13:38:55;;;;;;;4.60;2.53;;;;;;;;;;6097303;23;20022;-86
2023/02/06 13:41:31;;;;;;;3.42;1.80;;;;;;;;;;6123953;23;20018;-86
2023/02/06 13:44:04;;;;;;;4.93;2.38;;;;;;;;;;6124582;23;20364;-86
2023/02/06 13:46:56;;;;;;;5.63;3.13;;;;;;;;;;6121616;23;20014;-86
2023/02/06 13:49:38;;;;;;;3.38;2.10;;;;;;;;;;6134826;23;20017;-85
2023/02/06 13:52:11;;;;;;;3.35;3.05;;;;;;;;;;6124271;23;20018;-86
2023/02/06 13:54:59;;;;;;;3.00;2.10;;;;;;;;;;6123824;23;20497;-86
2023/02/06 13:57:35;;;;;;;1.88;1.67;;;;;;;;;;6131895;23;20043;-86
2023/02/06 14:00:10;;;;;;;3.85;3.00;;;;;;;;;;6122231;23;20014;-85
2023/02/06 14:02:40;;;;;;;2.35;1.75;;;;;;;;;;6122414;23;20406;-86
2023/02/06 14:05:11;;;;;;;1.70;1.50;;;;;;;;;;6122998;23;20018;-86
2023/02/06 14:07:57;;;;;;;3.20;2.30;;;;;;;;;;6130406;23;20349;-86
2023/02/06 14:13:39;;;;;;;2.67;2.05;;;;;;;;;;6132100;23;20014;-86
2023/02/06 14:16:19;;;;;;;2.30;1.52;;;;;;;;;;6131292;23;20014;-85
2023/02/06 14:18:51;;;;;;;2.22;1.83;;;;;;;;;;6132951;23;20414;-85
2023/02/06 14:21:30;;;;;;;4.25;2.53;;;;;;;;;;6120625;23;20018;-86
2023/02/06 14:24:08;;;;;;;4.93;2.25;;;;;;;;;;6133333;23;20010;-85
2023/02/06 14:26:42;;;;;;;2.20;2.00;;;;;;;;;;6131507;23;20018;-87
2023/02/06 14:29:20;;;;;;;8.32;3.15;;;;;;;;;;6133601;23;20044;-86
2023/02/06 14:32:06;;;;;;;4.15;3.15;;;;;;;;;;6123872;23;20018;-85
2023/02/06 14:34:43;;;;;;;7.47;3.38;;;;;;;;;;6132266;23;20022;-85
2023/02/06 14:37:31;;;;;;;2.60;2.22;;;;;;;;;;6133396;23;20017;-85
2023/02/06 14:39:59;;;;;;;4.53;3.55;;;;;;;;;;6123066;23;20028;-84
2023/02/06 14:42:28;;;;;;;3.08;2.53;;;;;;;;;;6127407;23;20067;-84
2023/02/06 14:45:02;;;;;;;4.00;2.30;;;;;;;;;;6156179;23;20014;-84
2023/02/06 14:47:39;;;;;;;5.50;2.50;;;;;;;;;;6159147;23;19998;-84
2023/02/06 14:50:17;;;;;;;4.40;3.50;;;;;;;;;;6150647;23;20328;-84
2023/02/06 14:52:45;;;;;;;3.15;2.58;;;;;;;;;;6132907;23;20018;-85
2023/02/06 14:55:40;;;;;;;2.70;2.50;;;;;;;;;;6131881;23;20034;-84
2023/02/06 14:58:18;;;;;;;3.58;2.72;;;;;;;;;;6104734;23;20369;-85
2023/02/06 15:00:48;;;;;;;3.28;2.97;;;;;;;;;;6122193;23;20018;-84
2023/02/06 15:03:21;;;;;;;3.75;2.30;;;;;;;;;;6122747;23;20022;-85
2023/02/06 15:05:59;;;;;;;4.18;2.70;;;;;;;;;;6132859;23;20018;-85
2023/02/06 15:08:29;;;;;;;3.97;2.72;;;;;;;;;;6123221;23;20022;-85
2023/02/06 15:10:58;;;;;;;3.40;2.90;;;;;;;;;;6123656;23;20025;-84
2023/02/06 15:13:34;;;;;;;;;;;;;;;;;;6134752;23;20021;-84
2023/02/06 15:16:03;;;;;;;7.57;4.22;;;;;;;;;;6120764;23;20388;-85
2023/02/06 15:18:35;;;;;;;6.03;2.53;;;;;;;;;;6133748;23;20018;-85
2023/02/06 15:21:06;;;;;;;3.72;2.42;;;;;;;;;;6122788;23;20034;-86
2023/02/06 15:23:48;;;;;;;3.20;2.42;;;;;;;;;;6134050;23;20013;-85
2023/02/06 15:26:23;;;;;;;2.25;2.05;;;;;;;;;;6133538;23;20018;-85
2023/02/06 15:28:56;;;;;;;4.32;2.90;;;;;;;;;;6125136;23;20056;-85
2023/02/06 15:31:23;;;;;;;3.08;2.28;;;;;;;;;;6125204;23;20014;-85
2023/02/06 15:33:54;;;;;;;3.47;2.70;;;;;;;;;;6097471;23;20026;-85
2023/02/06 15:36:23;;;;;;;3.67;2.42;;;;;;;;;;6133389;23;20014;-85
2023/02/06 15:38:56;;;;;;;4.85;2.40;;;;;;;;;;6099499;23;20028;-85
2023/02/06 15:41:23;;;;;;;3.90;2.85;;;;;;;;;;6123606;23;20018;-85
2023/02/06 15:44:01;;;;;;;2.95;2.65;;;;;;;;;;6124710;23;20335;-85
2023/02/06 15:46:31;;;;;;;6.25;4.28;;;;;;;;;;6124218;23;20018;-85
2023/02/06 15:49:02;;;;;;;8.88;2.85;;;;;;;;;;6123168;23;20017;-85
2023/02/06 15:51:37;;;;;;;3.25;2.88;;;;;;;;;;6125405;23;20024;-84
2023/02/06 15:54:08;;;;;;;3.15;2.63;;;;;;;;;;6099696;23;20022;-85
2023/02/06 15:56:37;;;;;;;4.03;2.88;;;;;;;;;;6124088;23;20014;-85
2023/02/06 15:59:06;;;;;;;4.53;3.03;;;;;;;;;;6126195;23;20014;-85
2023/02/06 16:01:35;;;;;;;6.53;3.45;;;;;;;;;;6124266;23;20018;-85
2023/02/06 16:04:06;;;;;;;5.05;3.58;;;;;;;;;;6123171;23;20346;-85
2023/02/06 16:06:36;;;;;;;5.38;3.50;;;;;;;;;;6099734;23;20038;-85
2023/02/06 16:09:06;;;;;;;4.35;3.40;;;;;;;;;;6100026;23;20021;-85
2023/02/06 16:11:47;;;;;;;4.07;2.90;;;;;;;;;;6124164;23;20033;-85
2023/02/06 16:14:23;;;;;;;4.18;3.78;;;;;;;;;;6134481;23;20029;-85
2023/02/06 16:16:58;;;;;;;4.45;3.53;;;;;;;;;;6134476;23;20021;-85
2023/02/06 16:19:35;;;;;;;2.92;2.63;;;;;;;;;;6134810;23;20025;-85
2023/02/06 16:22:06;;;;;;;4.13;3.05;;;;;;;;;;6123426;23;20024;-85
2023/02/06 16:24:34;;;;;;;3.10;2.10;;;;;;;;;;6126075;23;20454;-85
2023/02/06 16:27:15;;;;;;;4.13;3.33;;;;;;;;;;6135251;23;20342;-85
2023/02/06 16:29:49;;;;;;;;;;;;;;;;;;6125922;23;20018;-85
2023/02/06 16:32:21;;;;;;;3.42;2.53;;;;;;;;;;6133385;23;19917;-85
2023/02/06 16:34:52;;;;;;;5.27;2.77;;;;;;;;;;6132095;23;20482;-85
2023/02/06 16:37:23;;;;;;;4.72;3.13;;;;;;;;;;6133495;23;20014;-86
2023/02/06 16:39:54;;;;;;;3.28;1.73;;;;;;;;;;6132014;23;20045;-86
2023/02/06 16:42:23;;;;;;;3.25;2.42;;;;;;;;;;6123476;23;20021;-86
2023/02/06 16:44:57;;;;;;;4.10;2.40;;;;;;;;;;6133380;23;20021;-85
2023/02/06 16:47:25;;;;;;;3.28;2.30;;;;;;;;;;6135384;23;20036;-85
2023/02/06 16:49:58;;;;;;;6.35;3.05;;;;;;;;;;6132316;23;20033;-86
2023/02/06 16:52:27;;;;;;;3.72;2.15;;;;;;;;;;6096551;23;20022;-86
2023/02/06 16:54:57;;;;;;;2.85;2.22;;;;;;;;;;6124131;23;20014;-86
2023/02/06 16:57:28;;;;;;;9.32;2.85;;;;;;;;;;6125590;23;20014;-86
2023/02/06 16:59:56;;;;;;;5.70;2.08;;;;;;;;;;6132937;23;20045;-86
2023/02/06 17:02:23;;;;;;;3.88;2.60;;;;;;;;;;6098942;23;20018;-86
2023/02/06 17:04:53;;;;;;;4.15;2.30;;;;;;;;;;6123027;23;20017;-86
2023/02/06 17:07:24;;;;;;;5.25;3.00;;;;;;;;;;6123248;23;20018;-86
2023/02/06 17:09:54;;;;;;;4.55;1.85;;;;;;;;;;6122308;23;20018;-86
2023/02/06 17:12:25;;;;;;;2.60;1.80;;;;;;;;;;6123525;23;20018;-86
2023/02/06 17:14:52;;;;;;;3.22;2.78;;;;;;;;;;6123284;23;20030;-86
2023/02/06 17:17:21;;;;;;;2.15;1.95;;;;;;;;;;6100208;23;20319;-85
2023/02/06 17:19:49;;;;;;;3.35;1.90;;;;;;;;;;6123501;23;20025;-85
2023/02/06 17:22:17;;;;;;;3.17;2.10;;;;;;;;;;6125146;23;20024;-85
2023/02/06 17:24:45;;;;;;;5.03;2.00;;;;;;;;;;6122957;23;20025;-85
2023/02/06 17:27:16;;;;;;;3.80;2.10;;;;;;;;;;6098790;23;20018;-85
2023/02/06 17:29:43;;;;;;;3.58;2.13;;;;;;;;;;6132826;23;20018;-86
2023/02/06 17:32:10;;;;;;;2.70;1.75;;;;;;;;;;6119954;23;20021;-85
2023/02/06 17:34:40;;;;;;;6.60;1.75;;;;;;;;;;6122474;23;20020;-84
2023/02/06 17:37:11;;;;;;;3.58;2.40;;;;;;;;;;6124593;23;20342;-85
2023/02/06 17:39:40;;;;;;;5.35;2.17;;;;;;;;;;6122113;23;20025;-85
2023/02/06 17:42:12;;;;;;;9.00;3.08;;;;;;;;;;6120945;23;20025;-85
2023/02/06 17:44:39;;;;;;;2.78;2.35;;;;;;;;;;6124875;23;20021;-85
2023/02/06 17:47:06;;;;;;;8.45;3.90;;;;;;;;;;6120917;23;20045;-85
2023/02/06 17:49:36;;;;;;;10.90;2.83;;;;;;;;;;6124248;23;20024;-86
2023/02/06 17:52:04;;;;;;;8.95;3.03;;;;;;;;;;6121639;23;20021;-86
2023/02/06 17:54:31;;;;;;;3.78;2.20;;;;;;;;;;6124452;23;20025;-86
2023/02/06 17:56:58;;;;;;;4.57;3.08;;;;;;;;;;6133172;23;20021;-86
2023/02/06 17:59:27;;;;;;;5.68;2.72;;;;;;;;;;6124257;23;20644;-85
2023/02/06 18:01:54;;;;;;;4.88;3.65;;;;;;;;;;6120716;23;20018;-85
2023/02/06 18:04:21;;;;;;;3.78;3.17;;;;;;;;;;6097490;23;20025;-85
2023/02/06 18:06:51;;;;;;;5.07;3.08;;;;;;;;;;6122189;23;20022;-86
2023/02/06 18:09:18;;;;;;;6.97;3.20;;;;;;;;;;6125276;23;20021;-86
2023/02/06 18:11:45;;;;;;;5.07;3.38;;;;;;;;;;6122621;23;20018;-86
2023/02/06 18:14:12;;;;;;;5.25;3.13;;;;;;;;;;6120546;23;20014;-86
2023/02/06 18:16:44;;;;;;;3.75;3.45;;;;;;;;;;6122233;23;20010;-86
2023/02/06 18:19:11;;;;;;;2.97;2.63;;;;;;;;;;6098227;23;20351;-86
2023/02/06 18:21:38;;;;;;;5.35;3.22;;;;;;;;;;6121991;23;20018;-86
2023/02/06 18:24:06;;;;;;;4.32;3.30;;;;;;;;;;6123828;23;20014;-86
2023/02/06 18:26:34;;;;;;;4.75;3.13;;;;;;;;;;6123371;23;20024;-86
2023/02/06 18:29:03;;;;;;;5.05;2.53;;;;;;;;;;6121553;23;20382;-86
2023/02/06 18:31:32;;;;;;;3.95;2.92;;;;;;;;;;6123258;23;20010;-85
2023/02/06 18:34:03;;;;;;;6.28;4.13;;;;;;;;;;6119252;23;20022;-86
2023/02/06 18:36:30;;;;;;;3.97;3.20;;;;;;;;;;6121255;23;20021;-86
2023/02/06 18:38:57;;;;;;;7.20;4.32;;;;;;;;;;6121066;23;20022;-86
2023/02/06 18:44:10;;;;;;;4.45;3.83;;;;;;;;;;6128688;23;20021;-84
2023/02/06 18:46:40;;;;;;;6.47;3.97;;;;;;;;;;6130140;23;20017;-83
2023/02/06 18:49:09;;;;;;;6.05;4.22;;;;;;;;;;6154976;23;20028;-84
2023/02/06 18:51:36;;;;;;;9.63;3.80;;;;;;;;;;6129094;23;20017;-84
2023/02/06 18:54:03;;;;;;;5.22;2.47;;;;;;;;;;6191759;23;20013;-84
2023/02/06 18:56:33;;;;;;;5.32;3.55;;;;;;;;;;6128034;23;20021;-83
2023/02/06 18:59:00;;;;;;;4.15;3.60;;;;;;;;;;6123602;23;20025;-83
2023/02/06 19:01:27;;;;;;;4.78;3.85;;;;;;;;;;6175829;23;20017;-83
2023/02/06 19:03:58;;;;;;;3.95;3.38;;;;;;;;;;6173344;23;20367;-83
2023/02/06 19:06:34;;;;;;;7.20;3.35;;;;;;;;;;6183961;23;20013;-83
2023/02/06 19:09:02;;;;;;;3.80;3.10;;;;;;;;;;6147347;23;20028;-84
2023/02/06 19:11:29;;;;;;;8.82;8.02;;;;;;;;;;6174897;23;20016;-84
2023/02/06 19:13:56;;;;;;;3.45;2.83;;;;;;;;;;6172880;23;20020;-83
2023/02/06 19:16:25;;;;;;;3.50;3.13;;;;;;;;;;6122813;23;20017;-84
2023/02/06 19:18:52;;;;;;;3.88;2.92;;;;;;;;;;6172950;23;20016;-83
2023/02/06 19:21:20;;;;;;;3.10;2.65;;;;;;;;;;6174439;23;20021;-84
2023/02/06 19:23:54;;;;;;;4.22;3.22;;;;;;;;;;6173065;23;20017;-83
2023/02/06 19:26:21;;;;;;;3.45;2.00;;;;;;;;;;6183682;23;20024;-83
2023/02/06 19:28:49;;;;;;;4.03;2.35;;;;;;;;;;6146650;23;20017;-84
2023/02/06 19:31:22;;;;;;;5.75;2.40;;;;;;;;;;6148434;23;20491;-84
2023/02/06 19:33:50;;;;;;;4.07;2.55;;;;;;;;;;6146620;23;20389;-83
2023/02/06 19:36:19;;;;;;;2.30;2.10;;;;;;;;;;6146912;23;20017;-84
2023/02/06 19:38:49;;;;;;;2.38;2.15;;;;;;;;;;6122147;23;20021;-83
2023/02/06 19:41:19;;;;;;;5.20;3.10;;;;;;;;;;6173046;23;20261;-83
2023/02/06 19:43:49;;;;;;;2.90;2.60;;;;;;;;;;6121998;23;20073;-83
2023/02/06 19:46:19;;;;;;;3.35;2.92;;;;;;;;;;6172083;23;20017;-84
2023/02/06 19:48:48;;;;;;;6.97;4.43;;;;;;;;;;6173389;23;20024;-84
2023/02/06 19:51:18;;;;;;;3.47;2.40;;;;;;;;;;6122913;23;20400;-84
2023/02/06 19:53:45;;;;;;;4.00;2.90;;;;;;;;;;6172971;23;20020;-84
2023/02/06 19:56:18;;;;;;;2.95;2.13;;;;;;;;;;6122658;23;20017;-83
2023/02/06 19:58:45;;;;;;;4.47;3.03;;;;;;;;;;6123749;23;20028;-84
2023/02/06 20:01:15;;;;;;;5.07;2.75;;;;;;;;;;6122891;23;20369;-83
2023/02/06 20:03:45;;;;;;;5.07;3.15;;;;;;;;;;6122047;23;20665;-84
2023/02/06 20:06:15;;;;;;;2.88;2.40;;;;;;;;;;6172557;23;20360;-84
2023/02/06 20:08:44;;;;;;;4.47;2.63;;;;;;;;;;6146653;23;20055;-84
2023/02/06 20:11:17;;;;;;;3.03;2.42;;;;;;;;;;6173523;23;20017;-83
2023/02/06 20:13:46;;;;;;;2.97;2.33;;;;;;;;;;6122488;23;20131;-84
2023/02/06 20:16:14;;;;;;;2.85;2.22;;;;;;;;;;6146774;23;20457;-84
2023/02/06 20:18:42;;;;;;;3.30;2.50;;;;;;;;;;6172558;23;20475;-84
2023/02/06 20:21:25;;;;;;;4.47;4.10;;;;;;;;;;6123249;23;20342;-84
2023/02/06 20:23:55;;;;;;;3.35;2.65;;;;;;;;;;6146580;23;20021;-84
2023/02/06 20:26:29;;;;;;;3.28;2.50;;;;;;;;;;6185291;23;20009;-84
2023/02/06 20:28:56;;;;;;;4.30;2.45;;;;;;;;;;6148056;23;20477;-84
2023/02/06 20:31:23;;;;;;;3.13;2.72;;;;;;;;;;6175712;23;20025;-83
2023/02/06 20:33:53;;;;;;;3.30;2.17;;;;;;;;;;6158758;23;20028;-83
2023/02/06 20:36:24;;;;;;;4.35;1.92;;;;;;;;;;6185071;23;20020;-84
2023/02/06 20:38:53;;;;;;;3.45;1.73;;;;;;;;;;6123171;23;20267;-84
2023/02/06 20:41:22;;;;;;;3.95;2.95;;;;;;;;;;6148428;23;20017;-84
2023/02/06 20:43:55;;;;;;;2.78;2.42;;;;;;;;;;6174954;23;20028;-84
2023/02/06 20:46:22;;;;;;;4.82;3.30;;;;;;;;;;6185033;23;20017;-84
2023/02/06 20:48:54;;;;;;;3.72;2.65;;;;;;;;;;6173732;23;20423;-84
2023/02/06 20:51:22;;;;;;;4.82;3.28;;;;;;;;;;6154169;23;20348;-84